Time;durP1;ratioP1;P1;durP2;ratioP2;P2;SDS_P1;SDS_P2;PMS_P1;PMS_P2;Temp;Humidity;BMP_temperature;BMP_pressure;BME280_temperature;BME280_humidity;BME280_pressure;Samples;Min_cycle;Max_cycle;Signal;HPM_P1;HPM_P2
2022/07/02 00:01:57;;;;;;;;;8.00;6.00;;;;;19.66;39.19;101537.00;5027210;28;45342;-52
2022/07/02 00:04:26;;;;;;;;;6.00;5.00;;;;;19.65;39.26;101546.72;5030420;28;45366;-48
2022/07/02 00:06:52;;;;;;;;;4.75;4.00;;;;;19.60;39.97;101542.59;5023028;28;46730;-49
2022/07/02 00:09:17;;;;;;;;;4.25;3.75;;;;;19.53;39.89;101542.94;5019825;28;46148;-50
2022/07/02 00:11:42;;;;;;;;;8.50;4.25;;;;;19.47;39.94;101539.75;5040769;28;52334;-50
2022/07/02 00:14:08;;;;;;;;;6.00;4.50;;;;;19.40;40.45;101543.66;5031419;28;70638;-49
2022/07/02 00:16:34;;;;;;;;;5.50;4.25;;;;;19.35;40.68;101539.44;5034693;28;45703;-48
2022/07/02 00:19:00;;;;;;;;;6.00;4.25;;;;;19.32;40.46;101536.09;5028191;28;45617;-47
2022/07/02 00:21:26;;;;;;;;;7.25;5.50;;;;;19.30;40.65;101541.47;5010996;28;47094;-49
2022/07/02 00:23:51;;;;;;;;;6.25;5.00;;;;;19.26;41.02;101531.94;5032548;28;47814;-49
2022/07/02 00:26:18;;;;;;;;;5.25;5.25;;;;;19.22;41.00;101538.34;5034537;28;66591;-51
2022/07/02 00:28:48;;;;;;;;;7.75;7.00;;;;;19.19;41.01;101535.81;5027825;28;45417;-48
2022/07/02 00:31:13;;;;;;;;;7.00;6.25;;;;;19.16;40.99;101541.31;5026216;28;47073;-46
2022/07/02 00:33:40;;;;;;;;;9.00;7.00;;;;;19.11;41.37;101545.97;5031429;28;67185;-50
2022/07/02 00:36:05;;;;;;;;;8.00;7.00;;;;;19.07;41.61;101544.41;5028168;28;45436;-47
2022/07/02 00:38:31;;;;;;;;;6.50;4.00;;;;;19.04;41.99;101550.72;5026495;28;45458;-47
2022/07/02 00:40:59;;;;;;;;;8.50;6.50;;;;;19.02;41.83;101543.78;5034236;28;46190;-47
2022/07/02 00:43:24;;;;;;;;;5.50;5.50;;;;;18.97;42.92;101538.72;5029206;28;45515;-52
2022/07/02 00:45:50;;;;;;;;;10.25;6.00;;;;;18.93;42.78;101543.31;5035101;28;63580;-48
2022/07/02 00:48:15;;;;;;;;;4.50;4.50;;;;;18.92;43.35;101535.41;5038853;28;52190;-48
2022/07/02 00:50:41;;;;;;;;;10.00;4.25;;;;;18.90;43.16;101535.50;5036926;28;45426;-48
2022/07/02 00:53:06;;;;;;;;;4.25;4.25;;;;;18.87;43.77;101532.13;5034249;28;45407;-49
2022/07/02 00:55:32;;;;;;;;;4.00;3.00;;;;;18.83;43.13;101531.44;5031109;28;45419;-48
2022/07/02 00:57:58;;;;;;;;;4.75;3.50;;;;;18.78;43.75;101526.31;5030403;28;45407;-48
2022/07/02 01:00:23;;;;;;;;;5.25;4.00;;;;;18.74;43.75;101523.91;5035913;28;45413;-50
2022/07/02 01:02:49;;;;;;;;;6.50;5.00;;;;;18.69;44.24;101523.25;5032937;28;45228;-52
2022/07/02 01:05:16;;;;;;;;;4.00;4.00;;;;;18.63;44.43;101519.13;5039722;28;45291;-51
2022/07/02 01:07:47;;;;;;;;;5.50;4.00;;;;;18.60;43.80;101514.81;5015717;28;45544;-52
2022/07/02 01:10:16;;;;;;;;;6.00;4.00;;;;;18.55;44.37;101516.81;5037339;28;46199;-50
2022/07/02 01:12:44;;;;;;;;;4.00;4.00;;;;;18.52;45.53;101522.28;5035735;28;45446;-53
2022/07/02 01:15:10;;;;;;;;;4.00;4.00;;;;;18.51;45.87;101530.31;5037474;28;45458;-53
2022/07/02 01:17:35;;;;;;;;;9.00;5.00;;;;;18.47;45.45;101521.63;5027066;28;45531;-49
2022/07/02 01:20:04;;;;;;;;;5.00;4.25;;;;;18.46;45.91;101517.25;5033530;28;63267;-53
2022/07/02 01:22:33;;;;;;;;;6.50;4.25;;;;;18.44;46.22;101519.13;5028774;28;45284;-52
2022/07/02 01:24:59;;;;;;;;;6.50;4.50;;;;;18.42;46.36;101525.44;5033057;28;45438;-51
2022/07/02 01:27:24;;;;;;;;;9.00;7.25;;;;;18.40;46.33;101520.22;5023633;28;45570;-50
2022/07/02 01:29:50;;;;;;;;;6.25;4.75;;;;;18.37;46.97;101534.44;5027680;28;49559;-51
2022/07/02 01:32:16;;;;;;;;;4.50;4.50;;;;;18.35;46.54;101536.31;5035999;28;45253;-48
2022/07/02 01:34:46;;;;;;;;;4.75;4.00;;;;;18.36;46.56;101537.16;5011318;28;45421;-46
2022/07/02 01:37:14;;;;;;;;;4.00;4.00;;;;;18.34;46.86;101537.28;5032158;28;45343;-46
2022/07/02 01:39:40;;;;;;;;;5.25;2.00;;;;;18.34;47.09;101539.03;5028506;28;45424;-48
2022/07/02 01:42:06;;;;;;;;;5.75;4.75;;;;;18.32;46.88;101543.56;5030475;28;45892;-50
2022/07/02 01:44:33;;;;;;;;;6.25;4.00;;;;;18.31;46.86;101544.47;5033591;28;45197;-50
2022/07/02 01:46:58;;;;;;;;;3.75;3.75;;;;;18.30;47.27;101543.63;5032216;28;45391;-53
2022/07/02 01:49:23;;;;;;;;;5.50;4.00;;;;;18.28;47.69;101539.34;5036675;28;69991;-51
2022/07/02 01:51:49;;;;;;;;;3.00;3.00;;;;;18.25;47.65;101535.03;5038510;28;47028;-49
2022/07/02 01:54:14;;;;;;;;;6.50;4.25;;;;;18.21;47.22;101529.00;5026507;28;64018;-50
2022/07/02 01:56:40;;;;;;;;;5.25;3.50;;;;;18.19;47.50;101536.16;5020768;28;45402;-49
2022/07/02 01:59:05;;;;;;;;;5.00;4.00;;;;;18.16;47.76;101531.00;5033245;28;48697;-48
2022/07/02 02:01:31;;;;;;;;;6.25;4.25;;;;;18.16;48.18;101533.66;5035921;28;45321;-48
2022/07/02 02:03:57;;;;;;;;;9.50;5.00;;;;;18.14;48.12;101537.31;5031345;28;45659;-48
2022/07/02 02:06:22;;;;;;;;;5.00;3.00;;;;;18.12;48.31;101533.88;5031192;28;45437;-49
2022/07/02 02:08:48;;;;;;;;;4.50;3.00;;;;;18.10;48.12;101533.09;5009634;28;64083;-50
2022/07/02 02:11:14;;;;;;;;;6.00;5.00;;;;;18.08;48.54;101529.63;5009097;28;46829;-50
2022/07/02 02:13:39;;;;;;;;;4.00;4.00;;;;;18.07;48.16;101534.09;5013129;28;45650;-49
2022/07/02 02:16:04;;;;;;;;;3.00;2.50;;;;;18.06;48.21;101529.72;5016747;28;62924;-52
2022/07/02 02:18:30;;;;;;;;;6.00;5.00;;;;;18.06;48.43;101527.09;5027340;28;48056;-52
2022/07/02 02:20:55;;;;;;;;;5.00;4.00;;;;;18.05;48.46;101528.00;5027130;28;66794;-49
2022/07/02 02:23:20;;;;;;;;;8.50;5.00;;;;;18.06;48.61;101520.91;5033139;28;63599;-48
2022/07/02 02:25:46;;;;;;;;;6.25;5.00;;;;;18.04;48.35;101523.63;5030505;28;62217;-50
2022/07/02 02:28:11;;;;;;;;;10.00;6.25;;;;;18.03;48.18;101514.81;5021013;28;61687;-49
2022/07/02 02:30:36;;;;;;;;;9.75;6.00;;;;;18.00;48.41;101514.97;5034074;28;63738;-53
2022/07/02 02:33:02;;;;;;;;;6.00;6.00;;;;;17.98;48.73;101514.16;5032280;28;63672;-52
2022/07/02 02:35:27;;;;;;;;;4.50;4.50;;;;;17.97;48.67;101519.53;5023933;28;45269;-50
2022/07/02 02:37:53;;;;;;;;;6.00;6.00;;;;;17.96;49.03;101512.53;5026090;28;69122;-51
2022/07/02 02:40:18;;;;;;;;;5.00;4.25;;;;;17.96;50.06;101515.19;5034399;28;45701;-48
2022/07/02 02:42:43;;;;;;;;;4.50;4.25;;;;;17.92;49.15;101511.81;5027502;28;61337;-47
2022/07/02 02:45:09;;;;;;;;;4.50;4.50;;;;;17.90;49.13;101511.03;5035635;28;66428;-48
2022/07/02 02:47:34;;;;;;;;;6.25;5.00;;;;;17.86;49.17;101509.44;5052558;28;48678;-52
2022/07/02 02:50:00;;;;;;;;;8.00;7.25;;;;;17.87;49.18;101511.16;5032693;28;68235;-49
2022/07/02 02:52:25;;;;;;;;;6.00;5.00;;;;;17.87;49.40;101508.50;5028035;28;61536;-49
2022/07/02 02:54:50;;;;;;;;;5.50;5.50;;;;;17.88;49.53;101507.56;5028876;28;69600;-48
2022/07/02 02:57:16;;;;;;;;;5.00;4.75;;;;;17.88;49.64;101509.38;5031609;28;45483;-50
2022/07/02 02:59:41;;;;;;;;;8.25;5.25;;;;;17.86;49.30;101506.78;5027954;28;68192;-52
2022/07/02 03:02:07;;;;;;;;;4.75;4.75;;;;;17.87;49.75;101508.50;5034182;28;62443;-52
2022/07/02 03:04:33;;;;;;;;;7.25;5.75;;;;;17.86;49.69;101511.22;5025455;28;45494;-49
2022/07/02 03:06:59;;;;;;;;;10.00;4.00;;;;;17.83;49.48;101510.41;5036770;28;59302;-49
2022/07/02 03:09:24;;;;;;;;;8.00;5.75;;;;;17.84;49.93;101508.63;5031733;28;45395;-48
2022/07/02 03:11:50;;;;;;;;;4.50;4.50;;;;;17.82;49.70;101508.69;5031903;28;45401;-52
2022/07/02 03:14:15;;;;;;;;;7.75;6.00;;;;;17.84;49.46;101511.25;5031678;28;63766;-49
2022/07/02 03:16:40;;;;;;;;;6.50;5.00;;;;;17.86;49.62;101512.09;5027830;28;46364;-47
2022/07/02 03:19:06;;;;;;;;;5.50;4.50;;;;;17.84;49.68;101514.75;5026021;28;68368;-49
2022/07/02 03:21:31;;;;;;;;;8.50;4.75;;;;;17.83;49.71;101517.50;5033589;28;45333;-52
2022/07/02 03:23:56;;;;;;;;;7.00;6.50;;;;;17.83;49.67;101518.34;5029883;28;56480;-49
2022/07/02 03:26:22;;;;;;;;;6.50;5.50;;;;;17.84;49.87;101516.56;5030806;28;71517;-52
2022/07/02 03:28:47;;;;;;;;;8.25;6.75;;;;;17.86;49.72;101516.53;5034857;28;68708;-49
2022/07/02 03:31:12;;;;;;;;;4.75;4.75;;;;;17.86;49.84;101520.03;5035898;28;45826;-52
2022/07/02 03:33:38;;;;;;;;;5.25;5.25;;;;;17.85;49.70;101513.00;5031983;28;45525;-50
2022/07/02 03:36:04;;;;;;;;;6.00;6.00;;;;;17.86;49.96;101513.88;5028189;28;46044;-52
2022/07/02 03:38:29;;;;;;;;;7.75;5.75;;;;;17.86;50.03;101504.13;5032781;28;45683;-50
2022/07/02 03:40:55;;;;;;;;;3.00;3.00;;;;;17.84;49.76;101504.16;5036100;28;45292;-50
2022/07/02 03:43:20;;;;;;;;;8.25;6.25;;;;;17.86;49.75;101506.78;5030219;28;53181;-51
2022/07/02 03:45:45;;;;;;;;;8.00;6.00;;;;;17.88;49.74;101504.91;5032965;28;71258;-50
2022/07/02 03:48:11;;;;;;;;;10.00;6.25;;;;;17.89;49.78;101513.75;5032124;28;46036;-50
2022/07/02 03:50:38;;;;;;;;;6.75;6.75;;;;;17.88;49.86;101517.31;5035235;28;45360;-49
2022/07/02 03:53:04;;;;;;;;;10.00;6.75;;;;;17.85;50.19;101518.28;5031474;28;45320;-50
2022/07/02 03:55:30;;;;;;;;;8.00;6.00;;;;;17.83;49.76;101506.91;5033706;28;46343;-49
2022/07/02 03:57:55;;;;;;;;;8.00;6.25;;;;;17.82;50.48;101513.13;5027874;28;45448;-52
2022/07/02 04:00:20;;;;;;;;;6.00;6.00;;;;;17.77;50.78;101510.66;5039991;28;60573;-52
2022/07/02 04:02:46;;;;;;;;;5.00;4.75;;;;;17.70;50.20;101511.88;5028722;28;49961;-48
2022/07/02 04:05:11;;;;;;;;;6.75;6.00;;;;;17.64;51.12;101514.81;5034745;28;64243;-52
2022/07/02 04:07:36;;;;;;;;;10.00;7.50;;;;;17.56;50.09;101520.41;5036600;28;59910;-49
2022/07/02 04:10:03;;;;;;;;;9.00;7.50;;;;;17.51;49.95;101516.25;5033436;28;53378;-50
2022/07/02 04:12:28;;;;;;;;;9.00;7.50;;;;;17.49;49.75;101513.66;5038300;28;45305;-50
2022/07/02 04:14:54;;;;;;;;;9.75;8.00;;;;;17.51;50.00;101514.50;5031404;28;45458;-52
2022/07/02 04:17:19;;;;;;;;;9.50;8.00;;;;;17.55;49.68;101520.50;5047275;27;66141;-47
2022/07/02 04:19:44;;;;;;;;;9.75;7.00;;;;;17.58;49.64;101512.41;5010180;28;70247;-48
2022/07/02 04:22:09;;;;;;;;;8.25;6.75;;;;;17.61;49.56;101512.28;5030179;28;64442;-51
2022/07/02 04:24:35;;;;;;;;;9.00;6.25;;;;;17.66;49.24;101515.59;5035049;28;45502;-47
2022/07/02 04:27:00;;;;;;;;;7.25;6.50;;;;;17.68;49.44;101511.09;5039017;28;45585;-50
2022/07/02 04:29:25;;;;;;;;;7.25;6.00;;;;;17.72;49.06;101511.81;5027564;28;69121;-50
2022/07/02 04:31:51;;;;;;;;;6.00;5.00;;;;;17.75;49.25;101511.69;5029948;28;70572;-51
2022/07/02 04:34:16;;;;;;;;;7.50;6.00;;;;;17.78;49.08;101520.34;5033216;28;45427;-51
2022/07/02 04:36:42;;;;;;;;;6.50;5.75;;;;;17.82;49.27;101519.28;5033691;28;45427;-52
2022/07/02 04:39:07;;;;;;;;;11.50;6.00;;;;;17.86;49.04;101521.81;5033412;28;45414;-55
2022/07/02 04:41:33;;;;;;;;;10.00;6.75;;;;;17.86;49.16;101516.53;5031475;28;45810;-50
2022/07/02 04:43:59;;;;;;;;;8.00;7.25;;;;;17.89;49.15;101516.41;5029396;28;46408;-51
2022/07/02 04:46:24;;;;;;;;;11.50;6.75;;;;;17.94;49.12;101517.06;5034450;28;57719;-51
2022/07/02 04:48:50;;;;;;;;;8.00;6.75;;;;;17.97;48.93;101515.13;5033507;28;45442;-53
2022/07/02 04:51:15;;;;;;;;;7.50;5.00;;;;;17.99;49.18;101515.91;5036329;28;59781;-49
2022/07/02 04:53:41;;;;;;;;;9.00;7.75;;;;;18.02;48.94;101514.88;5037738;28;46206;-50
2022/07/02 04:56:06;;;;;;;;;8.00;7.00;;;;;18.02;49.38;101515.78;5047696;28;55903;-52
2022/07/02 04:58:31;;;;;;;;;7.50;7.50;;;;;18.03;49.18;101516.63;5028944;28;57637;-52
2022/07/02 05:00:57;;;;;;;;;7.00;6.00;;;;;18.05;48.99;101517.41;5037735;28;54976;-51
2022/07/02 05:03:22;;;;;;;;;14.00;6.50;;;;;18.07;48.76;101512.91;5032159;28;57913;-50
2022/07/02 05:05:47;;;;;;;;;10.25;6.50;;;;;18.11;49.06;101525.06;5033300;28;69362;-47
2022/07/02 05:08:14;;;;;;;;;8.00;8.00;;;;;18.14;48.99;101516.13;5037018;28;58217;-52
2022/07/02 05:10:39;;;;;;;;;8.00;8.00;;;;;18.18;48.89;101518.56;5036172;28;45505;-47
2022/07/02 05:13:04;;;;;;;;;5.75;5.75;;;;;18.23;48.87;101515.69;5034680;28;71343;-46
2022/07/02 05:15:30;;;;;;;;;8.00;7.00;;;;;18.25;48.80;101515.63;5038487;28;66156;-48
2022/07/02 05:17:56;;;;;;;;;7.00;7.00;;;;;18.26;48.94;101510.25;5035006;28;45457;-47
2022/07/02 05:20:21;;;;;;;;;6.25;6.25;;;;;18.26;48.70;101515.56;5037170;28;51772;-47
2022/07/02 05:22:46;;;;;;;;;8.75;7.50;;;;;18.29;48.87;101519.84;5033472;28;50760;-49
2022/07/02 05:25:12;;;;;;;;;9.00;7.50;;;;;18.33;48.95;101522.28;5036223;28;59780;-52
2022/07/02 05:27:37;;;;;;;;;11.75;9.00;;;;;18.34;48.90;101520.50;5036414;28;57051;-51
2022/07/02 05:30:03;;;;;;;;;8.50;6.50;;;;;18.36;48.76;101516.84;5025802;28;71940;-48
2022/07/02 05:32:28;;;;;;;;;8.00;6.75;;;;;18.38;48.67;101519.44;5032164;28;45679;-49
2022/07/02 05:34:54;;;;;;;;;8.25;4.75;;;;;18.40;48.54;101518.41;5036378;28;50250;-48
2022/07/02 05:37:19;;;;;;;;;8.00;8.00;;;;;18.45;48.35;101519.97;5024130;28;45350;-49
2022/07/02 05:39:44;;;;;;;;;7.50;7.00;;;;;18.49;48.29;101516.28;5029635;28;63643;-48
2022/07/02 05:42:10;;;;;;;;;31.25;22.25;;;;;18.57;48.01;101517.63;5034319;28;68517;-49
2022/07/02 05:44:35;;;;;;;;;23.00;19.00;;;;;18.67;47.97;101517.16;5033642;28;45482;-50
2022/07/02 05:47:01;;;;;;;;;5.75;5.50;;;;;18.73;47.89;101517.75;5037037;28;45547;-49
2022/07/02 05:49:26;;;;;;;;;10.00;8.25;;;;;18.75;47.74;101515.88;5030166;28;66644;-50
2022/07/02 05:51:51;;;;;;;;;7.50;5.00;;;;;18.81;47.67;101521.81;5035841;28;53802;-49
2022/07/02 05:54:16;;;;;;;;;8.00;7.25;;;;;18.82;47.60;101523.53;5030335;28;45594;-50
2022/07/02 05:56:42;;;;;;;;;10.00;8.00;;;;;18.78;47.60;101518.34;5037887;28;67612;-48
2022/07/02 05:59:07;;;;;;;;;6.75;6.75;;;;;18.81;47.83;101525.31;5025944;28;72715;-47
2022/07/02 06:01:32;;;;;;;;;6.50;6.25;;;;;18.81;47.18;101533.25;5035751;28;46873;-47
2022/07/02 06:03:58;;;;;;;;;8.25;6.75;;;;;18.79;47.19;101527.19;5028217;28;50973;-47
2022/07/02 06:09:07;;;;;;;;;7.00;6.00;;;;;18.91;46.94;101521.31;5034590;28;45445;-50
2022/07/02 06:11:33;;;;;;;;;10.00;6.00;;;;;19.00;47.05;101517.34;5037017;28;48131;-51
2022/07/02 06:13:58;;;;;;;;;20.00;15.50;;;;;19.06;46.78;101521.47;5034543;28;45387;-50
2022/07/02 06:16:24;;;;;;;;;66.00;48.25;;;;;19.16;46.49;101525.41;5038567;28;60017;-50
2022/07/02 06:18:49;;;;;;;;;11.25;9.00;;;;;19.23;46.27;101529.44;5038794;28;45592;-48
2022/07/02 06:21:14;;;;;;;;;9.75;8.00;;;;;19.28;45.82;101530.06;5033635;28;53486;-51
2022/07/02 06:23:40;;;;;;;;;9.75;6.75;;;;;19.34;46.12;101528.91;5037817;28;45503;-47
2022/07/02 06:26:05;;;;;;;;;7.25;7.00;;;;;19.41;45.94;101529.44;5033654;28;69041;-50
2022/07/02 06:28:31;;;;;;;;;8.00;6.25;;;;;19.47;46.22;101521.16;5035272;28;45478;-49
2022/07/02 06:30:56;;;;;;;;;7.25;5.25;;;;;19.55;46.09;101518.97;5032204;28;46088;-48
2022/07/02 06:33:21;;;;;;;;;7.50;6.50;;;;;19.62;45.65;101528.34;5027420;28;45536;-50
2022/07/02 06:35:47;;;;;;;;;5.25;5.00;;;;;19.62;45.27;101515.06;5037313;28;45510;-48
2022/07/02 06:38:12;;;;;;;;;6.00;6.00;;;;;19.66;45.39;101518.41;5032106;28;45336;-48
2022/07/02 06:40:38;;;;;;;;;6.75;5.00;;;;;19.72;45.68;101524.25;5038352;28;45491;-49
2022/07/02 06:43:03;;;;;;;;;7.50;5.75;;;;;19.80;45.40;101517.72;5026234;28;45364;-48
2022/07/02 06:45:29;;;;;;;;;8.50;6.75;;;;;19.86;45.45;101523.53;5029185;28;63338;-47
2022/07/02 06:47:54;;;;;;;;;6.25;4.25;;;;;19.90;45.24;101517.13;5038235;28;68313;-51
2022/07/02 06:50:19;;;;;;;;;4.75;4.75;;;;;19.96;44.55;101521.25;5032857;28;73983;-50
2022/07/02 06:52:45;;;;;;;;;5.75;4.75;;;;;19.97;44.57;101517.63;5033241;28;45426;-53
2022/07/02 06:55:12;;;;;;;;;4.25;4.25;;;;;19.95;44.16;101516.88;5036649;28;45622;-48
2022/07/02 06:57:37;;;;;;;;;4.75;4.00;;;;;19.96;44.26;101518.59;5040482;28;45539;-51
2022/07/02 07:00:04;;;;;;;;;8.50;6.00;;;;;19.99;44.33;101518.44;5033068;28;46811;-48
2022/07/02 07:02:30;;;;;;;;;6.00;5.75;;;;;19.99;43.94;101526.41;5027294;28;45524;-47
2022/07/02 07:04:56;;;;;;;;;7.00;4.00;;;;;19.99;44.16;101526.41;5036204;28;46521;-50
2022/07/02 07:07:27;;;;;;;;;4.50;3.00;;;;;20.06;44.03;101521.59;5030986;28;47194;-47
2022/07/02 07:09:54;;;;;;;;;6.25;5.50;;;;;20.13;43.89;101522.97;5035137;28;47148;-51
2022/07/02 07:12:19;;;;;;;;;3.75;3.50;;;;;20.21;43.81;101518.13;5032278;28;45463;-47
2022/07/02 07:14:45;;;;;;;;;3.00;2.25;;;;;20.26;42.66;101521.38;5033334;28;61206;-49
2022/07/02 07:17:10;;;;;;;;;3.50;3.50;;;;;20.25;42.30;101517.00;5034355;28;45166;-52
2022/07/02 07:19:35;;;;;;;;;5.75;3.25;;;;;20.24;42.00;101517.09;5030700;28;73258;-49
2022/07/02 07:22:01;;;;;;;;;5.00;4.00;;;;;20.29;42.73;101515.03;5031772;28;45747;-52
2022/07/02 07:24:27;;;;;;;;;3.00;2.75;;;;;20.35;42.74;101509.38;5037491;28;45400;-51
2022/07/02 07:26:52;;;;;;;;;3.25;2.25;;;;;20.43;42.57;101512.47;5035914;28;69510;-50
2022/07/02 07:29:17;;;;;;;;;5.00;4.00;;;;;20.54;42.70;101514.53;5034530;28;46005;-48
2022/07/02 07:31:43;;;;;;;;;4.75;4.75;;;;;20.62;42.46;101512.31;5036825;28;45444;-49
2022/07/02 07:34:09;;;;;;;;;3.00;2.25;;;;;20.73;42.36;101503.72;5034748;28;45376;-50
2022/07/02 07:36:34;;;;;;;;;3.75;2.50;;;;;20.79;41.80;101508.69;5040709;28;45280;-49
2022/07/02 07:39:01;;;;;;;;;1.25;1.25;;;;;20.84;40.69;101513.72;5028453;28;68247;-50
2022/07/02 07:41:27;;;;;;;;;3.00;3.00;;;;;20.83;40.65;101504.06;5040327;28;45367;-52
2022/07/02 07:43:52;;;;;;;;;3.00;3.00;;;;;20.83;41.16;101507.56;5031556;28;45878;-50
2022/07/02 07:46:19;;;;;;;;;2.25;2.25;;;;;20.89;39.58;101516.13;5033474;28;45403;-49
2022/07/02 07:48:44;;;;;;;;;2.25;2.00;;;;;20.91;41.05;101499.16;5035713;28;47954;-48
2022/07/02 07:51:10;;;;;;;;;2.00;2.00;;;;;21.00;40.74;101498.59;5032897;28;48529;-52
2022/07/02 07:53:35;;;;;;;;;2.25;1.50;;;;;21.11;40.49;101502.44;5031399;28;70229;-52
2022/07/02 07:56:01;;;;;;;;;4.00;2.00;;;;;21.20;40.32;101499.22;5033154;28;45269;-50
2022/07/02 07:58:26;;;;;;;;;2.25;2.25;;;;;21.30;40.03;101496.84;5037455;28;68839;-52
2022/07/02 08:00:52;;;;;;;;;2.00;2.00;;;;;21.37;40.00;101499.06;5030631;28;45324;-46
2022/07/02 08:03:18;;;;;;;;;4.00;2.00;;;;;21.49;39.78;101493.97;5022876;28;45607;-48
2022/07/02 08:05:47;;;;;;;;;2.00;1.00;;;;;21.61;39.67;101488.75;5023298;28;45738;-48
2022/07/02 08:08:15;;;;;;;;;3.75;2.00;;;;;21.69;39.02;101498.06;5026760;28;45541;-46
2022/07/02 08:10:41;;;;;;;;;2.00;2.00;;;;;21.79;39.58;101497.41;5035053;28;45405;-48
2022/07/02 08:13:06;;;;;;;;;2.00;2.00;;;;;21.89;38.64;101488.88;5028389;28;69223;-45
2022/07/02 08:15:32;;;;;;;;;3.50;2.00;;;;;21.97;39.08;101491.88;5030034;28;54479;-45
2022/07/02 08:17:57;;;;;;;;;4.00;2.00;;;;;22.08;38.97;101504.53;5033622;28;45445;-44
2022/07/02 08:20:23;;;;;;;;;2.50;2.00;;;;;22.15;38.70;101488.06;5039684;28;45318;-47
2022/07/02 08:22:50;;;;;;;;;2.25;1.00;;;;;22.23;37.76;101492.91;5019113;28;45459;-48
2022/07/02 08:25:16;;;;;;;;;2.00;1.00;;;;;22.29;38.37;101492.56;5036851;28;45910;-50
2022/07/02 08:27:42;;;;;;;;;1.00;1.00;;;;;22.36;38.08;101493.88;5035141;28;46064;-49
2022/07/02 08:30:08;;;;;;;;;1.75;1.75;;;;;22.41;37.83;101482.03;5036189;28;45442;-46
2022/07/02 08:32:34;;;;;;;;;3.50;1.75;;;;;22.52;38.11;101483.06;5035731;28;45434;-47
2022/07/02 08:34:59;;;;;;;;;3.25;2.00;;;;;22.60;37.22;101482.53;5031946;28;65452;-49
2022/07/02 08:37:25;;;;;;;;;1.50;1.00;;;;;22.67;37.28;101485.66;5033301;28;45614;-49
2022/07/02 08:39:51;;;;;;;;;1.25;1.00;;;;;22.73;37.46;101487.91;5031174;28;45513;-52
2022/07/02 08:42:36;;;;;;;;;2.50;1.25;;;;;22.82;36.93;101486.44;5016267;28;45497;-46
2022/07/02 08:45:03;;;;;;;;;3.00;1.50;;;;;22.88;37.11;101478.88;5031329;28;45359;-49
2022/07/02 08:47:29;;;;;;;;;2.00;2.00;;;;;22.96;37.01;101480.19;5033948;28;47079;-48
2022/07/02 08:49:56;;;;;;;;;2.00;2.00;;;;;23.02;36.84;101479.75;5037701;28;45411;-51
2022/07/02 08:52:23;;;;;;;;;3.75;2.75;;;;;23.09;36.21;101478.44;5039068;28;45719;-50
2022/07/02 08:54:49;;;;;;;;;1.50;1.50;;;;;23.15;35.96;101478.00;5035727;28;45587;-48
2022/07/02 08:57:14;;;;;;;;;3.00;1.00;;;;;23.21;36.41;101476.72;5032272;28;45564;-46
2022/07/02 08:59:41;;;;;;;;;1.00;1.00;;;;;23.26;35.00;101472.78;5038669;28;45386;-51
2022/07/02 09:02:07;;;;;;;;;0.00;0.00;;;;;23.29;35.13;101466.38;5018627;28;45384;-50
2022/07/02 09:04:33;;;;;;;;;0.75;0.75;;;;;23.33;35.30;101465.19;5034659;28;45381;-52
2022/07/02 09:07:02;;;;;;;;;1.00;1.00;;;;;23.40;35.34;101465.63;5025765;28;45426;-47
2022/07/02 09:09:29;;;;;;;;;1.00;1.00;;;;;23.45;35.19;101471.50;5027710;28;45272;-47
2022/07/02 09:11:55;;;;;;;;;1.00;1.00;;;;;23.51;35.62;101476.41;5031999;28;45420;-48
2022/07/02 09:14:21;;;;;;;;;1.00;1.00;;;;;23.56;35.41;101468.94;5032691;28;45375;-46
2022/07/02 09:16:47;;;;;;;;;3.25;1.00;;;;;23.62;35.25;101465.84;5038479;28;46170;-48
2022/07/02 09:19:12;;;;;;;;;0.00;0.00;;;;;23.68;34.71;101470.75;5031526;28;45362;-49
2022/07/02 09:21:48;;;;;;;;;1.50;1.00;;;;;23.76;34.87;101469.34;5011903;28;45447;-49
2022/07/02 09:24:13;;;;;;;;;1.00;1.00;;;;;23.81;34.49;101470.75;5035232;28;45468;-49
2022/07/02 09:26:39;;;;;;;;;2.75;0.00;;;;;23.86;34.92;101455.25;5034240;28;62316;-46
2022/07/02 09:29:04;;;;;;;;;1.00;1.00;;;;;23.91;34.27;101465.63;5031531;28;45427;-50
2022/07/02 09:31:31;;;;;;;;;3.25;3.25;;;;;23.96;34.65;101467.97;5038891;28;45327;-50
2022/07/02 09:33:57;;;;;;;;;8.00;3.00;;;;;24.00;33.97;101459.59;5050449;28;46286;-48
2022/07/02 09:36:24;;;;;;;;;2.00;1.00;;;;;24.03;33.94;101464.72;5032000;28;48436;-49
2022/07/02 09:38:51;;;;;;;;;0.25;0.00;;;;;23.95;33.22;101450.22;5031555;28;45359;-52
2022/07/02 09:41:21;;;;;;;;;13.50;8.50;;;;;24.02;33.79;101459.50;5033703;28;45517;-50
2022/07/02 09:43:58;;;;;;;;;1.75;1.00;;;;;24.34;33.57;101451.78;5043471;28;44940;-49
2022/07/02 09:46:23;;;;;;;;;1.00;1.00;;;;;24.95;33.70;101449.03;5033323;28;47441;-47
2022/07/02 09:48:49;;;;;;;;;4.00;3.50;;;;;25.99;32.82;101449.88;5020911;28;65289;-45
2022/07/02 09:51:15;;;;;;;;;2.50;2.00;;;;;27.46;31.32;101447.44;5029865;28;45752;-45
2022/07/02 09:53:52;;;;;;;;;1.75;0.25;;;;;29.22;30.37;101442.28;5031593;28;45860;-47
2022/07/02 09:56:23;;;;;;;;;0.00;0.00;;;;;30.93;28.16;101446.25;5031962;28;45460;-47
2022/07/02 09:58:49;;;;;;;;;0.00;0.00;;;;;32.47;26.84;101444.38;5033020;28;45447;-50
2022/07/02 10:01:19;;;;;;;;;0.00;0.00;;;;;33.89;24.96;101439.41;5034711;28;45377;-48
2022/07/02 10:03:46;;;;;;;;;0.00;0.00;;;;;35.16;21.35;101439.78;5032561;28;45501;-47
2022/07/02 10:06:12;;;;;;;;;0.00;0.00;;;;;36.26;23.16;101437.25;5036385;28;45396;-49
2022/07/02 10:08:38;;;;;;;;;0.00;0.00;;;;;37.30;22.46;101436.63;5035998;28;45493;-50
2022/07/02 10:11:04;;;;;;;;;0.00;0.00;;;;;38.28;20.41;101436.38;5025289;28;57313;-49
2022/07/02 10:13:30;;;;;;;;;1.50;0.25;;;;;39.21;19.37;101423.75;5024064;28;63415;-50
2022/07/02 10:16:00;;;;;;;;;1.00;0.00;;;;;40.08;18.60;101417.91;5046935;28;47081;-49
2022/07/02 10:18:25;;;;;;;;;0.00;0.00;;;;;40.99;17.52;101413.78;5032205;28;45746;-52
2022/07/02 10:20:52;;;;;;;;;1.50;1.00;;;;;41.74;18.05;101415.47;5040687;28;45858;-51
2022/07/02 10:23:18;;;;;;;;;0.00;0.00;;;;;42.47;16.31;101408.00;5030536;28;45336;-48
2022/07/02 10:25:44;;;;;;;;;2.00;0.00;;;;;43.01;16.53;101407.91;5037233;28;49385;-51
2022/07/02 10:28:09;;;;;;;;;2.25;0.75;;;;;43.46;15.36;101406.41;5038567;28;45403;-52
2022/07/02 10:30:35;;;;;;;;;2.00;0.75;;;;;43.89;15.61;101413.28;5032848;28;45615;-50
2022/07/02 10:33:16;;;;;;;;;0.00;0.00;;;;;44.41;14.77;101413.06;5017055;28;60643;-48
2022/07/02 10:35:42;;;;;;;;;0.00;0.00;;;;;44.71;14.04;101412.75;5039040;28;46461;-48
2022/07/02 10:38:09;;;;;;;;;0.00;0.00;;;;;44.74;14.42;101408.66;5031432;28;45802;-50
2022/07/02 10:40:48;;;;;;;;;0.75;0.00;;;;;45.05;13.99;101403.56;5028015;28;45313;-50
2022/07/02 10:43:17;;;;;;;;;1.00;0.00;;;;;45.29;14.11;101401.38;5033014;28;45313;-48
2022/07/02 10:45:43;;;;;;;;;2.75;1.75;;;;;45.48;13.56;101402.72;5024371;28;47042;-50
2022/07/02 10:48:11;;;;;;;;;3.00;1.00;;;;;45.99;12.88;101401.59;5026649;28;45283;-49
2022/07/02 10:50:39;;;;;;;;;1.75;0.75;;;;;46.49;12.58;101385.72;5031350;28;45338;-48
2022/07/02 10:53:17;;;;;;;;;3.25;1.00;;;;;46.87;12.76;101394.78;5028818;28;45599;-49
2022/07/02 10:56:02;;;;;;;;;2.00;0.00;;;;;47.06;12.43;101386.84;5033086;27;45430;-50
2022/07/02 10:58:31;;;;;;;;;3.25;3.25;;;;;47.35;12.32;101390.00;5032489;28;45608;-48
2022/07/02 11:01:10;;;;;;;;;4.50;2.25;;;;;47.77;12.22;101385.41;5029457;28;45366;-51
2022/07/02 11:03:37;;;;;;;;;0.00;0.00;;;;;48.12;11.79;101384.59;5029071;28;45562;-50
2022/07/02 11:06:07;;;;;;;;;2.50;0.75;;;;;48.34;11.46;101383.47;5028880;28;45526;-49
2022/07/02 11:08:45;;;;;;;;;1.75;1.50;;;;;48.47;10.40;101389.28;5035292;28;45977;-53
2022/07/02 11:11:30;;;;;;;;;8.50;3.50;;;;;48.25;10.84;101388.75;5028367;28;45399;-48
2022/07/02 11:13:58;;;;;;;;;18.25;8.25;;;;;48.37;11.54;101385.72;5028169;28;45532;-53
2022/07/02 11:16:29;;;;;;;;;8.00;2.25;;;;;48.50;10.90;101389.84;5026919;28;46509;-51
2022/07/02 11:18:56;;;;;;;;;14.75;4.25;;;;;48.59;10.20;101382.59;5035793;28;45815;-50
2022/07/02 11:21:23;;;;;;;;;50.75;22.25;;;;;48.62;10.75;101390.38;5002537;28;45523;-49
2022/07/02 11:23:49;;;;;;;;;15.25;6.00;;;;;48.84;10.64;101381.69;5032467;28;45449;-48